Wetterdaten: Woche 13.04.20 - 19.04.20 (KW16)
Datum Zeit Temp. Aussen Temp. o. S. Temp +5cm Feuchte Auss Luftdruck Regen Sonnenschein Regendauer Solar Windben Empfang
13.04.2020 00:00 12,9 C 10,7 C 9,7 C 74 % 1013,3 hPa 0,0 l/m 0,00 h 0,00 h 0 W/m 0,0 km/h (0 Bft) 98,60 %
13.04.2020 01:00 11,8 C 10,2 C 9,0 C 78 % 1013,4 hPa 0,0 l/m 0,00 h 0,00 h 0 W/m 0,0 km/h (0 Bft) 96,44 %
13.04.2020 02:00 10,9 C 9,3 C 8,7 C 81 % 1013,7 hPa 0,0 l/m 0,00 h 0,00 h 0 W/m 4,1 km/h (1 Bft) 96,36 %
13.04.2020 03:00 10,5 C 9,4 C 8,8 C 83 % 1014,0 hPa 0,0 l/m 0,00 h 0,00 h 0 W/m 3,0 km/h (1 Bft) 99,64 %
13.04.2020 04:00 10,8 C 10,1 C 9,6 C 86 % 1014,5 hPa 0,0 l/m 0,00 h 0,00 h 0 W/m 13,2 km/h (3 Bft) 97,40 %
13.04.2020 05:00 10,1 C 8,9 C 8,8 C 84 % 1015,3 hPa 0,0 l/m 0,00 h 0,00 h 0 W/m 13,0 km/h (3 Bft) 93,70 %
13.04.2020 06:00 8,9 C 7,8 C 7,6 C 82 % 1016,7 hPa 0,0 l/m 0,00 h 0,00 h 6 W/m 13,3 km/h (3 Bft) 97,82 %
13.04.2020 07:00 8,4 C 7,7 C 7,6 C 81 % 1018,2 hPa 0,0 l/m 0,00 h 0,00 h 23 W/m 16,7 km/h (3 Bft) 97,16 %
13.04.2020 08:00 8,7 C 8,1 C 7,8 C 82 % 1019,2 hPa 0,0 l/m 0,00 h 0,00 h 33 W/m 12,7 km/h (3 Bft) 97,73 %
13.04.2020 09:00 8,4 C 7,8 C 7,7 C 79 % 1020,0 hPa 0,0 l/m 0,00 h 0,13 h 59 W/m 14,7 km/h (3 Bft) 94,65 %
13.04.2020 10:00 8,5 C 8,9 C 8,7 C 74 % 1021,0 hPa 0,0 l/m 0,00 h 0,00 h 168 W/m 14,1 km/h (3 Bft) 97,13 %
13.04.2020 11:00 8,9 C 9,8 C 9,6 C 70 % 1021,9 hPa 0,0 l/m 0,07 h 0,00 h 246 W/m 6,8 km/h (2 Bft) 98,15 %
13.04.2020 12:00 10,1 C 13,0 C 11,4 C 62 % 1022,5 hPa 0,0 l/m 0,80 h 0,00 h 456 W/m 18,4 km/h (3 Bft) 95,96 %
13.04.2020 13:00 11,9 C 17,1 C 14,9 C 55 % 1022,9 hPa 0,0 l/m 0,97 h 0,00 h 825 W/m 21,2 km/h (4 Bft) 95,00 %
13.04.2020 14:00 12,8 C 17,8 C 17,7 C 51 % 1022,9 hPa 0,0 l/m 1,00 h 0,00 h 807 W/m 20,3 km/h (4 Bft) 97,46 %
13.04.2020 15:00 13,3 C 17,4 C 13,8 C 49 % 1023,1 hPa 0,0 l/m 1,00 h 0,00 h 750 W/m 20,3 km/h (4 Bft) 96,66 %
13.04.2020 16:00 13,2 C 16,9 C 15,0 C 48 % 1022,8 hPa 0,0 l/m 1,00 h 0,00 h 630 W/m 22,2 km/h (4 Bft) 99,15 %
13.04.2020 17:00 12,7 C 15,2 C 14,3 C 47 % 1022,7 hPa 0,0 l/m 1,00 h 0,00 h 467 W/m 19,1 km/h (3 Bft) 96,71 %
13.04.2020 18:00 11,0 C 11,1 C 9,4 C 50 % 1022,9 hPa 0,0 l/m 0,53 h 0,00 h 186 W/m 18,0 km/h (3 Bft) 96,44 %
13.04.2020 19:00 9,1 C 8,1 C 7,8 C 52 % 1023,0 hPa 0,0 l/m 0,00 h 0,00 h 37 W/m 14,4 km/h (3 Bft) 98,88 %
13.04.2020 20:00 7,9 C 6,6 C 6,5 C 56 % 1023,6 hPa 0,0 l/m 0,00 h 0,00 h 12 W/m 9,2 km/h (2 Bft) 97,13 %
13.04.2020 21:00 6,7 C 5,4 C 5,3 C 60 % 1024,5 hPa 0,0 l/m 0,00 h 0,00 h 0 W/m 8,8 km/h (2 Bft) 94,45 %
13.04.2020 22:00 5,7 C 4,4 C 4,3 C 63 % 1025,1 hPa 0,0 l/m 0,00 h 0,00 h 0 W/m 6,9 km/h (2 Bft) 96,80 %
13.04.2020 23:00 4,8 C 3,5 C 3,4 C 66 % 1025,8 hPa 0,0 l/m 0,00 h 0,00 h 0 W/m 6,2 km/h (2 Bft) 97,72 %
14.04.2020 00:00 3,8 C 2,2 C 2,0 C 69 % 1026,0 hPa 0,0 l/m 0,00 h 0,00 h 0 W/m 0,1 km/h (0 Bft) 96,23 %
14.04.2020 01:00 2,8 C 1,1 C 0,7 C 72 % 1026,0 hPa 0,0 l/m 0,00 h 0,00 h 0 W/m 0,0 km/h (0 Bft) 98,22 %
14.04.2020 02:00 1,9 C 0,7 C 0,3 C 76 % 1026,1 hPa 0,0 l/m 0,00 h 0,00 h 0 W/m 0,0 km/h (0 Bft) 96,36 %
14.04.2020 03:00 2,0 C 2,0 C 1,8 C 80 % 1026,2 hPa 0,0 l/m 0,00 h 0,00 h 0 W/m 0,0 km/h (0 Bft) 96,87 %
14.04.2020 04:00 2,8 C 2,6 C 2,3 C 81 % 1026,0 hPa 0,0 l/m 0,00 h 0,00 h 0 W/m 0,0 km/h (0 Bft) 97,86 %
14.04.2020 05:00 3,5 C 3,4 C 3,1 C 78 % 1026,1 hPa 0,0 l/m 0,00 h 0,00 h 0 W/m 0,4 km/h (0 Bft) 98,10 %
14.04.2020 06:00 4,2 C 3,8 C 3,5 C 75 % 1026,2 hPa 0,0 l/m 0,00 h 0,00 h 5 W/m 0,3 km/h (0 Bft) 94,48 %
14.04.2020 07:00 4,7 C 4,4 C 4,1 C 74 % 1026,6 hPa 0,0 l/m 0,00 h 0,00 h 29 W/m 1,5 km/h (1 Bft) 97,42 %
14.04.2020 08:00 5,5 C 5,9 C 5,7 C 74 % 1027,0 hPa 0,0 l/m 0,00 h 0,00 h 104 W/m 5,9 km/h (2 Bft) 96,34 %
14.04.2020 09:00 6,7 C 8,5 C 8,1 C 72 % 1027,3 hPa 0,0 l/m 0,57 h 0,00 h 232 W/m 8,2 km/h (2 Bft) 95,49 %
14.04.2020 10:00 7,8 C 9,2 C 9,0 C 68 % 1027,6 hPa 0,0 l/m 0,27 h 0,00 h 255 W/m 5,8 km/h (2 Bft) 98,56 %
14.04.2020 11:00 8,8 C 10,8 C 10,2 C 64 % 1027,7 hPa 0,0 l/m 0,37 h 0,00 h 326 W/m 9,7 km/h (2 Bft) 98,01 %
14.04.2020 12:00 10,0 C 13,2 C 12,0 C 60 % 1027,7 hPa 0,0 l/m 0,83 h 0,00 h 437 W/m 10,6 km/h (2 Bft) 98,39 %
14.04.2020 13:00 11,4 C 13,9 C 12,5 C 56 % 1027,4 hPa 0,0 l/m 0,43 h 0,00 h 431 W/m 5,6 km/h (1 Bft) 96,67 %
14.04.2020 14:00 11,7 C 14,8 C 14,1 C 54 % 1027,3 hPa 0,0 l/m 0,57 h 0,00 h 462 W/m 7,4 km/h (2 Bft) 96,79 %
14.04.2020 15:00 11,8 C 13,6 C 12,3 C 53 % 1027,1 hPa 0,0 l/m 0,30 h 0,00 h 408 W/m 8,0 km/h (2 Bft) 97,51 %
14.04.2020 16:00 12,2 C 14,6 C 13,1 C 52 % 1026,8 hPa 0,0 l/m 0,47 h 0,00 h 399 W/m 4,1 km/h (1 Bft) 97,94 %
14.04.2020 17:00 12,6 C 15,1 C 13,5 C 52 % 1026,6 hPa 0,0 l/m 0,57 h 0,00 h 384 W/m 8,0 km/h (2 Bft) 99,20 %
14.04.2020 18:00 12,2 C 11,6 C 9,9 C 52 % 1026,6 hPa 0,0 l/m 0,43 h 0,00 h 165 W/m 4,7 km/h (1 Bft) 94,96 %
14.04.2020 19:00 9,8 C 8,3 C 8,0 C 57 % 1026,6 hPa 0,0 l/m 0,00 h 0,00 h 39 W/m 3,3 km/h (1 Bft) 97,66 %
14.04.2020 20:00 8,6 C 6,6 C 6,0 C 60 % 1026,7 hPa 0,0 l/m 0,03 h 0,00 h 14 W/m 0,0 km/h (0 Bft) 98,22 %
14.04.2020 21:00 7,1 C 4,8 C 4,0 C 64 % 1027,0 hPa 0,0 l/m 0,00 h 0,00 h 0 W/m 0,0 km/h (0 Bft) 97,72 %
14.04.2020 22:00 5,7 C 3,5 C 2,9 C 69 % 1026,9 hPa 0,0 l/m 0,00 h 0,00 h 0 W/m 0,0 km/h (0 Bft) 94,09 %
14.04.2020 23:00 4,5 C 2,8 C 2,0 C 72 % 1026,7 hPa 0,0 l/m 0,00 h 0,00 h 0 W/m 0,0 km/h (0 Bft) 93,84 %
15.04.2020 00:00 3,5 C 1,9 C 1,3 C 76 % 1026,8 hPa 0,0 l/m 0,00 h 0,00 h 0 W/m 0,0 km/h (0 Bft) 97,13 %
15.04.2020 01:00 2,7 C 1,1 C 0,7 C 79 % 1026,7 hPa 0,0 l/m 0,00 h 0,00 h 0 W/m 0,0 km/h (0 Bft) 98,47 %
15.04.2020 02:00 2,0 C 1,0 C 0,5 C 83 % 1026,3 hPa 0,0 l/m 0,00 h 0,00 h 0 W/m 0,0 km/h (0 Bft) 96,72 %
15.04.2020 03:00 1,6 C 0,6 C 0,0 C 86 % 1026,1 hPa 0,0 l/m 0,00 h 0,00 h 0 W/m 0,0 km/h (0 Bft) 97,58 %
15.04.2020 04:00 1,3 C 0,2 C -0,3 C 88 % 1026,2 hPa 0,0 l/m 0,00 h 0,00 h 0 W/m 0,0 km/h (0 Bft) 97,92 %
15.04.2020 05:00 0,9 C 0,1 C -0,5 C 89 % 1026,2 hPa 0,0 l/m 0,00 h 0,00 h 0 W/m 0,0 km/h (0 Bft) 97,15 %
15.04.2020 06:00 0,6 C 0,1 C -0,5 C 90 % 1026,1 hPa 0,0 l/m 0,00 h 0,00 h 6 W/m 0,0 km/h (0 Bft) 96,57 %
15.04.2020 07:00 0,9 C 1,6 C 0,8 C 92 % 1026,2 hPa 0,0 l/m 0,00 h 0,00 h 35 W/m 0,2 km/h (0 Bft) 99,36 %
15.04.2020 08:00 2,8 C 4,4 C 3,6 C 94 % 1026,4 hPa 0,0 l/m 0,13 h 0,00 h 98 W/m 2,2 km/h (1 Bft) 95,15 %
15.04.2020 09:00 6,0 C 10,4 C 9,2 C 83 % 1026,3 hPa 0,0 l/m 1,00 h 0,00 h 357 W/m 5,0 km/h (1 Bft) 96,94 %
15.04.2020 10:00 9,7 C 14,7 C 16,9 C 66 % 1026,3 hPa 0,0 l/m 1,00 h 0,00 h 570 W/m 6,5 km/h (2 Bft) 96,16 %
15.04.2020 11:00 12,3 C 17,7 C 12,3 C 55 % 1026,1 hPa 0,0 l/m 1,00 h 0,00 h 708 W/m 8,4 km/h (2 Bft) 95,48 %
15.04.2020 12:00 14,1 C 19,2 C 12,8 C 51 % 1025,5 hPa 0,0 l/m 1,00 h 0,00 h 788 W/m 8,1 km/h (2 Bft) 97,20 %
15.04.2020 13:00 15,6 C 21,2 C 18,1 C 49 % 1024,8 hPa 0,0 l/m 1,00 h 0,00 h 817 W/m 9,2 km/h (2 Bft) 97,15 %
15.04.2020 14:00 16,2 C 21,2 C 20,7 C 45 % 1024,0 hPa 0,0 l/m 1,00 h 0,00 h 790 W/m 10,5 km/h (2 Bft) 98,93 %
15.04.2020 15:00 17,7 C 22,8 C 17,4 C 43 % 1023,4 hPa 0,0 l/m 1,00 h 0,00 h 742 W/m 8,9 km/h (2 Bft) 98,08 %
15.04.2020 16:00 18,7 C 22,6 C 19,2 C 40 % 1022,8 hPa 0,0 l/m 1,00 h 0,00 h 604 W/m 8,4 km/h (2 Bft) 96,15 %
15.04.2020 17:00 19,4 C 22,8 C 21,0 C 39 % 1022,0 hPa 0,0 l/m 1,00 h 0,00 h 477 W/m 6,0 km/h (2 Bft) 97,73 %
15.04.2020 18:00 19,1 C 18,9 C 15,8 C 41 % 1021,4 hPa 0,0 l/m 0,57 h 0,00 h 197 W/m 3,0 km/h (1 Bft) 99,08 %
15.04.2020 19:00 17,6 C 16,1 C 14,2 C 46 % 1020,8 hPa 0,0 l/m 0,00 h 0,00 h 53 W/m 0,1 km/h (0 Bft) 96,37 %
15.04.2020 20:00 16,0 C 13,2 C 11,4 C 52 % 1020,5 hPa 0,0 l/m 0,00 h 0,00 h 13 W/m 0,0 km/h (0 Bft) 97,22 %
15.04.2020 21:00 13,4 C 10,6 C 8,9 C 59 % 1020,7 hPa 0,0 l/m 0,00 h 0,00 h 0 W/m 0,0 km/h (0 Bft) 98,26 %
15.04.2020 22:00 11,6 C 9,7 C 8,0 C 63 % 1020,5 hPa 0,0 l/m 0,00 h 0,00 h 0 W/m 0,0 km/h (0 Bft) 99,57 %
15.04.2020 23:00 10,3 C 8,1 C 6,7 C 68 % 1020,3 hPa 0,0 l/m 0,00 h 0,00 h 0 W/m 0,0 km/h (0 Bft) 96,87 %
16.04.2020 00:00 8,9 C 7,4 C 6,0 C 72 % 1019,9 hPa 0,0 l/m 0,00 h 0,00 h 0 W/m 0,0 km/h (0 Bft) 94,84 %
16.04.2020 01:00 8,2 C 6,5 C 5,3 C 75 % 1019,6 hPa 0,0 l/m 0,00 h 0,00 h 0 W/m 0,0 km/h (0 Bft) 97,59 %
16.04.2020 02:00 7,4 C 6,6 C 4,9 C 79 % 1019,1 hPa 0,0 l/m 0,00 h 0,00 h 0 W/m 1,5 km/h (1 Bft) 96,71 %
16.04.2020 03:00 8,1 C 8,1 C 6,9 C 77 % 1018,8 hPa 0,0 l/m 0,00 h 0,00 h 0 W/m 6,4 km/h (2 Bft) 97,15 %
16.04.2020 04:00 8,8 C 8,3 C 7,5 C 72 % 1018,4 hPa 0,0 l/m 0,00 h 0,00 h 0 W/m 12,2 km/h (2 Bft) 95,03 %
16.04.2020 05:00 9,0 C 7,8 C 7,0 C 70 % 1018,0 hPa 0,0 l/m 0,00 h 0,00 h 0 W/m 3,8 km/h (1 Bft) 98,79 %
16.04.2020 06:00 8,1 C 7,0 C 6,1 C 73 % 1017,8 hPa 0,0 l/m 0,00 h 0,00 h 10 W/m 4,2 km/h (1 Bft) 97,42 %
16.04.2020 07:00 7,8 C 7,4 C 6,7 C 75 % 1017,6 hPa 0,0 l/m 0,00 h 0,00 h 36 W/m 5,5 km/h (1 Bft) 97,86 %
16.04.2020 08:00 8,8 C 9,6 C 8,6 C 73 % 1017,6 hPa 0,0 l/m 0,13 h 0,00 h 100 W/m 8,4 km/h (2 Bft) 97,37 %
16.04.2020 09:00 11,7 C 15,2 C 14,4 C 66 % 1017,4 hPa 0,0 l/m 0,93 h 0,00 h 341 W/m 13,1 km/h (3 Bft) 97,94 %
16.04.2020 10:00 15,3 C 20,5 C 23,3 C 57 % 1017,4 hPa 0,0 l/m 1,00 h 0,00 h 576 W/m 9,2 km/h (2 Bft) 95,73 %
16.04.2020 11:00 18,7 C 25,4 C 17,9 C 49 % 1017,1 hPa 0,0 l/m 1,00 h 0,00 h 720 W/m 5,7 km/h (1 Bft) 95,80 %
16.04.2020 12:00 21,2 C 26,6 C 19,0 C 40 % 1016,8 hPa 0,0 l/m 1,00 h 0,00 h 811 W/m 9,8 km/h (2 Bft) 98,64 %
16.04.2020 13:00 22,4 C 27,7 C 24,6 C 38 % 1016,4 hPa 0,0 l/m 1,00 h 0,00 h 834 W/m 10,4 km/h (2 Bft) 96,87 %
16.04.2020 14:00 23,5 C 29,4 C 28,5 C 37 % 1016,0 hPa 0,0 l/m 1,00 h 0,00 h 807 W/m 7,9 km/h (2 Bft) 98,50 %
16.04.2020 15:00 24,6 C 29,0 C 23,6 C 35 % 1015,5 hPa 0,0 l/m 1,00 h 0,00 h 728 W/m 7,5 km/h (2 Bft) 97,72 %
16.04.2020 16:00 24,7 C 28,0 C 24,6 C 37 % 1015,1 hPa 0,0 l/m 1,00 h 0,00 h 527 W/m 5,9 km/h (2 Bft) 97,64 %
16.04.2020 17:00 25,7 C 28,4 C 26,4 C 37 % 1014,8 hPa 0,0 l/m 1,00 h 0,00 h 439 W/m 6,4 km/h (2 Bft) 97,65 %
16.04.2020 18:00 24,8 C 23,8 C 20,3 C 38 % 1014,6 hPa 0,0 l/m 0,57 h 0,00 h 180 W/m 10,1 km/h (2 Bft) 96,66 %
16.04.2020 19:00 22,1 C 20,0 C 17,2 C 44 % 1014,5 hPa 0,0 l/m 0,00 h 0,00 h 61 W/m 1,1 km/h (0 Bft) 98,65 %
16.04.2020 20:00 19,6 C 17,1 C 15,3 C 48 % 1014,7 hPa 0,0 l/m 0,00 h 0,00 h 15 W/m 2,2 km/h (1 Bft) 97,94 %
16.04.2020 21:00 17,5 C 15,3 C 13,3 C 50 % 1015,1 hPa 0,0 l/m 0,00 h 0,00 h 0 W/m 0,7 km/h (0 Bft) 96,06 %
16.04.2020 22:00 15,6 C 12,8 C 11,1 C 56 % 1015,8 hPa 0,0 l/m 0,00 h 0,00 h 0 W/m 0,0 km/h (0 Bft) 98,37 %
16.04.2020 23:00 13,5 C 11,8 C 10,2 C 62 % 1016,1 hPa 0,0 l/m 0,00 h 0,00 h 0 W/m 0,5 km/h (0 Bft) 98,15 %
17.04.2020 00:00 13,5 C 12,8 C 11,6 C 65 % 1016,4 hPa 0,0 l/m 0,00 h 0,00 h 0 W/m 3,1 km/h (1 Bft) 97,14 %
17.04.2020 01:00 13,6 C 12,4 C 11,4 C 65 % 1016,6 hPa 0,0 l/m 0,00 h 0,00 h 0 W/m 4,3 km/h (1 Bft) 94,88 %
17.04.2020 02:00 12,7 C 11,1 C 10,2 C 70 % 1016,7 hPa 0,0 l/m 0,00 h 0,00 h 0 W/m 3,1 km/h (1 Bft) 99,50 %
17.04.2020 03:00 11,5 C 9,6 C 8,8 C 77 % 1016,7 hPa 0,0 l/m 0,00 h 0,00 h 0 W/m 0,9 km/h (0 Bft) 96,94 %
17.04.2020 04:00 10,1 C 8,4 C 8,1 C 81 % 1016,8 hPa 0,0 l/m 0,00 h 0,00 h 0 W/m 0,0 km/h (0 Bft) 97,01 %
17.04.2020 05:00 8,9 C 7,6 C 7,2 C 82 % 1017,0 hPa 0,0 l/m 0,00 h 0,00 h 0 W/m 3,7 km/h (1 Bft) 96,30 %
17.04.2020 06:00 8,1 C 7,0 C 6,7 C 83 % 1017,1 hPa 0,0 l/m 0,03 h 0,00 h 13 W/m 3,5 km/h (1 Bft) 96,17 %
17.04.2020 07:00 7,9 C 7,6 C 7,1 C 84 % 1017,5 hPa 0,0 l/m 0,00 h 0,00 h 44 W/m 3,8 km/h (1 Bft) 98,08 %
17.04.2020 08:00 8,5 C 9,1 C 8,1 C 83 % 1017,7 hPa 0,0 l/m 0,20 h 0,00 h 101 W/m 6,3 km/h (2 Bft) 97,02 %
17.04.2020 09:00 10,8 C 15,4 C 13,9 C 77 % 1017,8 hPa 0,0 l/m 1,00 h 0,00 h 357 W/m 8,3 km/h (2 Bft) 97,93 %
17.04.2020 10:00 14,1 C 19,0 C 19,8 C 68 % 1017,6 hPa 0,0 l/m 1,00 h 0,00 h 528 W/m 10,3 km/h (2 Bft) 99,64 %
17.04.2020 11:00 16,6 C 22,1 C 16,7 C 63 % 1017,4 hPa 0,0 l/m 1,00 h 0,00 h 669 W/m 12,1 km/h (2 Bft) 97,01 %
17.04.2020 12:00 18,7 C 24,3 C 18,0 C 60 % 1017,1 hPa 0,0 l/m 1,00 h 0,00 h 746 W/m 11,0 km/h (2 Bft) 98,79 %
17.04.2020 13:00 20,5 C 25,9 C 22,9 C 56 % 1016,6 hPa 0,0 l/m 1,00 h 0,00 h 801 W/m 12,4 km/h (3 Bft) 97,51 %
17.04.2020 14:00 21,6 C 26,6 C 25,6 C 53 % 1016,3 hPa 0,0 l/m 1,00 h 0,00 h 784 W/m 10,3 km/h (2 Bft) 95,16 %
17.04.2020 15:00 22,1 C 26,2 C 21,9 C 50 % 1016,0 hPa 0,0 l/m 1,00 h 0,00 h 699 W/m 12,3 km/h (3 Bft) 99,86 %
17.04.2020 16:00 22,4 C 25,6 C 22,7 C 48 % 1015,4 hPa 0,0 l/m 1,00 h 0,00 h 595 W/m 12,4 km/h (3 Bft) 97,65 %
17.04.2020 17:00 22,2 C 24,3 C 23,0 C 48 % 1014,9 hPa 0,0 l/m 1,00 h 0,00 h 439 W/m 10,8 km/h (2 Bft) 96,09 %
17.04.2020 18:00 21,2 C 21,0 C 18,3 C 49 % 1014,8 hPa 0,0 l/m 0,63 h 0,00 h 209 W/m 9,2 km/h (2 Bft) 99,50 %
17.04.2020 19:00 19,3 C 17,9 C 16,8 C 52 % 1014,7 hPa 0,0 l/m 0,00 h 0,00 h 48 W/m 4,9 km/h (1 Bft) 97,08 %
17.04.2020 20:00 17,7 C 15,7 C 14,7 C 55 % 1014,8 hPa 0,0 l/m 0,00 h 0,00 h 13 W/m 2,6 km/h (1 Bft) 97,01 %
17.04.2020 21:00 15,9 C 14,2 C 13,2 C 58 % 1015,1 hPa 0,0 l/m 0,00 h 0,00 h 0 W/m 2,8 km/h (1 Bft) 98,57 %
17.04.2020 22:00 14,8 C 13,3 C 12,5 C 61 % 1015,3 hPa 0,0 l/m 0,00 h 0,00 h 0 W/m 3,5 km/h (1 Bft) 96,28 %
17.04.2020 23:00 13,9 C 12,4 C 11,5 C 62 % 1015,2 hPa 0,0 l/m 0,00 h 0,00 h 0 W/m 2,1 km/h (1 Bft) 99,43 %
18.04.2020 00:00 13,1 C 11,9 C 11,1 C 64 % 1015,2 hPa 0,0 l/m 0,00 h 0,00 h 0 W/m 3,1 km/h (1 Bft) 95,99 %
18.04.2020 01:00 12,5 C 11,1 C 10,2 C 66 % 1015,1 hPa 0,0 l/m 0,00 h 0,00 h 0 W/m 1,7 km/h (1 Bft) 97,29 %
18.04.2020 02:00 11,6 C 10,2 C 9,4 C 69 % 1014,9 hPa 0,0 l/m 0,00 h 0,00 h 0 W/m 2,1 km/h (1 Bft) 96,21 %
18.04.2020 03:00 10,8 C 9,3 C 8,7 C 70 % 1014,7 hPa 0,0 l/m 0,00 h 0,00 h 0 W/m 1,3 km/h (1 Bft) 99,29 %
18.04.2020 04:00 10,1 C 8,8 C 8,3 C 72 % 1014,5 hPa 0,0 l/m 0,00 h 0,00 h 0 W/m 1,2 km/h (1 Bft) 94,66 %
18.04.2020 05:00 9,5 C 8,2 C 7,6 C 73 % 1014,4 hPa 0,0 l/m 0,00 h 0,00 h 0 W/m 1,1 km/h (0 Bft) 99,07 %
18.04.2020 06:00 8,9 C 7,5 C 6,8 C 74 % 1014,5 hPa 0,0 l/m 0,03 h 0,00 h 13 W/m 0,0 km/h (0 Bft) 97,86 %
18.04.2020 07:00 8,7 C 8,8 C 8,1 C 77 % 1014,8 hPa 0,0 l/m 0,00 h 0,00 h 46 W/m 0,7 km/h (0 Bft) 97,44 %
18.04.2020 08:00 10,0 C 11,7 C 10,7 C 77 % 1015,0 hPa 0,0 l/m 0,17 h 0,00 h 130 W/m 3,1 km/h (1 Bft) 97,37 %
18.04.2020 09:00 12,6 C 15,7 C 15,0 C 74 % 1014,9 hPa 0,0 l/m 0,50 h 0,00 h 276 W/m 2,8 km/h (1 Bft) 95,95 %
18.04.2020 10:00 15,4 C 18,1 C 17,4 C 68 % 1015,0 hPa 0,0 l/m 0,53 h 0,00 h 294 W/m 2,7 km/h (1 Bft) 98,58 %
18.04.2020 11:00 17,2 C 19,9 C 18,2 C 63 % 1015,2 hPa 0,0 l/m 0,40 h 0,00 h 361 W/m 6,0 km/h (2 Bft) 97,72 %
18.04.2020 12:00 18,4 C 21,8 C 19,2 C 61 % 1015,4 hPa 0,0 l/m 0,57 h 0,00 h 465 W/m 6,4 km/h (2 Bft) 99,15 %
18.04.2020 13:00 19,7 C 20,3 C 19,3 C 60 % 1015,5 hPa 0,0 l/m 0,10 h 0,03 h 283 W/m 8,1 km/h (2 Bft) 97,01 %
18.04.2020 14:00 19,0 C 20,0 C 19,2 C 61 % 1015,8 hPa 0,0 l/m 0,60 h 0,00 h 366 W/m 11,6 km/h (2 Bft) 95,94 %
18.04.2020 15:00 18,2 C 17,1 C 17,0 C 66 % 1015,9 hPa 0,0 l/m 0,00 h 0,27 h 167 W/m 7,7 km/h (2 Bft) 99,43 %
18.04.2020 16:00 16,7 C 15,2 C 14,3 C 81 % 1015,6 hPa 0,6 l/m 0,43 h 0,30 h 292 W/m 5,0 km/h (1 Bft) 98,01 %
18.04.2020 17:00 16,9 C 16,5 C 15,5 C 80 % 1016,1 hPa 0,2 l/m 0,63 h 0,00 h 244 W/m 4,7 km/h (1 Bft) 94,94 %
18.04.2020 18:00 17,2 C 17,3 C 16,1 C 77 % 1016,2 hPa 0,0 l/m 0,37 h 0,00 h 155 W/m 3,3 km/h (1 Bft) 99,60 %
18.04.2020 19:00 16,5 C 15,4 C 14,6 C 78 % 1016,2 hPa 0,0 l/m 0,00 h 0,00 h 51 W/m 3,0 km/h (1 Bft) 95,96 %
18.04.2020 20:00 15,7 C 14,1 C 13,6 C 80 % 1016,2 hPa 0,0 l/m 0,00 h 0,00 h 11 W/m 1,7 km/h (1 Bft) 95,56 %
18.04.2020 21:00 14,5 C 11,9 C 11,0 C 82 % 1016,6 hPa 0,0 l/m 0,00 h 0,00 h 0 W/m 0,0 km/h (0 Bft) 99,50 %
18.04.2020 22:00 12,9 C 11,0 C 9,9 C 85 % 1016,9 hPa 0,0 l/m 0,00 h 0,00 h 0 W/m 0,0 km/h (0 Bft) 97,01 %
18.04.2020 23:00 11,8 C 9,9 C 9,1 C 87 % 1016,8 hPa 0,0 l/m 0,00 h 0,00 h 0 W/m 0,0 km/h (0 Bft) 98,43 %
19.04.2020 00:00 10,8 C 9,0 C 8,0 C 89 % 1016,8 hPa 0,0 l/m 0,00 h 0,00 h 0 W/m 0,0 km/h (0 Bft) 96,06 %
19.04.2020 01:00 10,0 C 8,4 C 7,5 C 90 % 1016,8 hPa 0,0 l/m 0,00 h 0,00 h 0 W/m 0,0 km/h (0 Bft) 98,22 %
19.04.2020 02:00 10,1 C 9,9 C 9,3 C 93 % 1017,0 hPa 0,0 l/m 0,00 h 0,00 h 0 W/m 0,0 km/h (0 Bft) 96,26 %
19.04.2020 03:00 11,0 C 10,6 C 10,0 C 96 % 1016,9 hPa 0,0 l/m 0,00 h 0,00 h 0 W/m 0,1 km/h (0 Bft) 99,79 %
19.04.2020 04:00 11,2 C 10,6 C 10,0 C 96 % 1017,2 hPa 0,0 l/m 0,00 h 0,00 h 0 W/m 0,0 km/h (0 Bft) 95,73 %
19.04.2020 05:00 11,1 C 10,4 C 10,0 C 96 % 1017,3 hPa 0,0 l/m 0,00 h 0,00 h 0 W/m 0,0 km/h (0 Bft) 97,08 %
19.04.2020 06:00 10,9 C 10,1 C 10,0 C 95 % 1017,4 hPa 0,0 l/m 0,00 h 0,00 h 4 W/m 0,0 km/h (0 Bft) 97,66 %
19.04.2020 07:00 11,0 C 10,8 C 10,4 C 95 % 1017,5 hPa 0,0 l/m 0,00 h 0,00 h 23 W/m 0,4 km/h (0 Bft) 96,93 %
19.04.2020 08:00 11,3 C 11,1 C 10,6 C 94 % 1017,8 hPa 0,0 l/m 0,00 h 0,00 h 24 W/m 0,0 km/h (0 Bft) 97,22 %
19.04.2020 09:00 11,5 C 11,3 C 10,8 C 94 % 1017,8 hPa 0,0 l/m 0,00 h 0,00 h 47 W/m 0,5 km/h (0 Bft) 98,15 %
19.04.2020 10:00 12,0 C 12,3 C 11,8 C 94 % 1018,3 hPa 0,0 l/m 0,00 h 0,00 h 90 W/m 1,4 km/h (1 Bft) 96,37 %
19.04.2020 11:00 12,5 C 13,7 C 13,1 C 87 % 1018,8 hPa 0,0 l/m 0,00 h 0,00 h 215 W/m 6,0 km/h (2 Bft) 98,36 %
19.04.2020 12:00 14,4 C 17,7 C 16,1 C 79 % 1018,7 hPa 0,0 l/m 0,57 h 0,00 h 454 W/m 9,3 km/h (2 Bft) 98,09 %
19.04.2020 13:00 18,0 C 24,3 C 22,0 C 67 % 1018,3 hPa 0,0 l/m 0,97 h 0,00 h 898 W/m 12,6 km/h (3 Bft) 96,83 %
19.04.2020 14:00 19,5 C 23,3 C 23,3 C 60 % 1018,0 hPa 0,0 l/m 0,93 h 0,00 h 687 W/m 13,1 km/h (3 Bft) 97,29 %
19.04.2020 15:00 19,7 C 22,4 C 19,9 C 59 % 1017,6 hPa 0,0 l/m 0,60 h 0,00 h 544 W/m 11,2 km/h (2 Bft) 97,93 %
19.04.2020 16:00 19,7 C 22,9 C 20,4 C 55 % 1017,2 hPa 0,0 l/m 0,93 h 0,00 h 614 W/m 11,5 km/h (2 Bft) 98,72 %
19.04.2020 17:00 20,0 C 21,7 C 21,0 C 51 % 1016,9 hPa 0,0 l/m 0,93 h 0,00 h 441 W/m 12,8 km/h (3 Bft) 95,30 %
19.04.2020 18:00 18,8 C 18,7 C 16,3 C 50 % 1016,9 hPa 0,0 l/m 0,67 h 0,00 h 227 W/m 14,2 km/h (3 Bft) 98,46 %
19.04.2020 19:00 16,8 C 15,5 C 14,6 C 51 % 1017,3 hPa 0,0 l/m 0,00 h 0,00 h 37 W/m 12,1 km/h (2 Bft) 98,44 %
19.04.2020 20:00 15,3 C 13,8 C 13,1 C 53 % 1017,9 hPa 0,0 l/m 0,00 h 0,00 h 13 W/m 10,2 km/h (2 Bft) 95,73 %
19.04.2020 21:00 13,9 C 12,5 C 11,9 C 56 % 1018,4 hPa 0,0 l/m 0,00 h 0,00 h 0 W/m 9,7 km/h (2 Bft) 98,15 %
19.04.2020 22:00 12,9 C 11,6 C 10,9 C 57 % 1018,8 hPa 0,0 l/m 0,00 h 0,00 h 0 W/m 10,0 km/h (2 Bft) 98,43 %
19.04.2020 23:00 11,9 C 10,6 C 9,9 C 57 % 1019,3 hPa 0,0 l/m 0,00 h 0,00 h 0 W/m 9,9 km/h (2 Bft) 98,00 %
Min-Datum _ 15.04.20 15.04.20 15.04.20 16.04.20 13.04.20 - - - - 13.04.20 17.04.20
_ Min-Zeit 06:16 05:48 04:26 15:24 00:08 - - - - 00:00 06:36
Minimum _ 0,6 C -0,6 C -0,6 C 33 % 1013,2 hPa - - - - 0,0 km/h (0 Bft) 47,06 %
Max-Datum _ 16.04.20 16.04.20 16.04.20 19.04.20 14.04.20 18.04.20 19.04.20 13.04.20 14.04.20 13.04.20 13.04.20
_ Max-Zeit 18:00 14:46 14:16 03:18 11:06 16:02 14:01 09:40 13:32 12:52 00:00
Maximum _ 25,9 C 31,1 C 32,8 C 96 % 1027,8 hPa 0,6 l/m 0,08 h 0,03 h 1043 W/m 45,1 km/h
NW (6 Bft)
100,00 %
Durchschnitt _ 12,3 C 12,8 C 11,5 C 67 % 1019,6 hPa #0,8 l/m #50:20 h #44 min. 327 W/m 5,7 km/h (1 Bft) 97,29 %
© 2020 W. Hausmann